Rejestracja

Wszystkie dane podawane są w czasie UTC za wyjątkiem miejsc gdzie jest jednoznacznie podane, że jest inaczej. Dane podawane w serwisie mają charakter informacyjny!!!
Informacje w sprawie dostępu do serwisu pod numerem tel. +48 261-828-138
Informacja dla żołnierzy i pracowników wojska: Prosimy o niezwłoczną zmianę adresu e-mail w profilu użytkownika na pocztę w domenie @ron.mil.pl

Aktualna Pogoda
 
Pogoda w Polsce
5°C Szczecin -4°C Suwałki -0°C Warszawa 7°C Poznan
7°C Opole 4°C Kraków -2°C Rzeszów
Więcej miast w Polsce

Pogoda w Europie
5°C Berlin 5°C Paryz 8°C Bruksela 4°C Oslo
4°C Praga 3°C Zagrzeb
Więcej miast w Europie

Metary wojskowe test
METAR EPCE 230500Z 21006KT 4000 BR OVC005 07/06 Q1026 RMK 066 093 8/8=
METAR EPDA 230500Z 19007KT 8000 BKN009 07/06 Q1025 RMK 069 093 6/6=
METAR EPDE 230500Z 10002KT 9999 NSC M04/M05 Q1030 RMK M043 096 2/2=
METAR EPKS 230500Z 12005KT 0250 R29/0275D FG NSC 03/03 Q1027 RMK 028 100 0/0=
METAR EPLK 230500Z 13004KT 0200 R28/0350N FG VV001 02/02 Q1029 RMK 020 100 ///=
METAR EPLY 230500Z VRB02KT 0200 FG NSC 01/01 Q1029 RMK 013 097 0/0=
METAR EPMB 230500Z 19008KT 9999 BKN020 02/M01 Q1027 RMK 023 077 5/5=
METAR EPMI 230500Z 14004KT 4000 MIFG BR FEW006 04/04 Q1026 RMK 041 099 2/2=
METAR EPMM 230500Z 18003KT 150V210 CAVOK M03/M04 Q1030 RMK M026 087 2/2=
METAR EPOK 230500Z 22008KT 190V270 9999 OVC013 08/05 Q1026 RMK 082 083 8/8=
METAR EPPR 230500Z 14004KT 9999 SCT020 05/03 Q1027 RMK 048 086 4/4=
METAR EPPW 230500Z 11006KT 0100 FG NSC 02/02 Q1028 RMK 017 100 0/0=
METAR EPSN 230500Z 20008KT 2000 BR OVC005 07/07 Q1025 RMK 073 100 8/8=
METAR EPTM 230500Z 15002KT 0200 FG VV001 M01/M01 Q1029 RMK M012 099 ///=


 

Prawa autorskie©2007 SSH SZ RP. Wszelkie prawa zastrzeżone.